< < Back
Terminal Aerodrome Forecast


Current Version              Previous Versions:   1  2  3  4  5  6  7  8  9  

Terminal Aerodrome Forecast

701
FTUS44 KOHX 031720
TAFCSV
TAF
KCSV 031720Z 0318/0418 VRB03KT P6SM FEW040=

Latest METAR

519
SAUS70 KWBC 041800
MTRCSV
METAR KCSV 041753Z AUTO 08006KT 10SM FEW049 30/17 A3012 RMK AO2 SLP175
T03000167 10306 20189 58003


USA.gov is the U.S. government's official web portal to all federal, state and local government web resources and services.